Time;durP1;ratioP1;P1;durP2;ratioP2;P2;SDS_P1;SDS_P2;PMS_P1;PMS_P2;Temp;Humidity;BMP_temperature;BMP_pressure;BME280_temperature;BME280_humidity;BME280_pressure;Samples;Min_cycle;Max_cycle;Signal;HPM_P1;HPM_P2
2022/11/08 00:01:39;;;;;;;2.75;1.33;;;6.10;99.90;;;;;;5084323;28;20488;-84
2022/11/08 00:04:15;;;;;;;4.78;1.65;;;;;;;;;;5085388;28;20102;-85
2022/11/08 00:14:56;;;;;;;3.80;1.25;;;5.80;99.90;;;;;;5087970;28;20817;-84
2022/11/08 00:17:24;;;;;;;3.65;1.52;;;6.20;99.90;;;;;;5087633;28;20055;-85
2022/11/08 00:19:50;;;;;;;3.20;1.60;;;;;;;;;;5087066;28;20028;-85
2022/11/08 00:22:16;;;;;;;5.50;1.60;;;;;;;;;;5086814;28;20165;-85
2022/11/08 00:24:42;;;;;;;3.15;1.33;;;;;;;;;;5067741;28;20024;-85
2022/11/08 00:27:11;;;;;;;4.13;1.20;;;;;;;;;;5087755;28;20113;-84
2022/11/08 00:29:37;;;;;;;1.45;1.20;;;;;;;;;;5090767;28;20032;-85
2022/11/08 00:32:03;;;;;;;2.53;1.25;;;;;;;;;;5085931;28;20032;-85
2022/11/08 00:34:29;;;;;;;3.40;1.30;;;;;;;;;;5067607;28;20036;-85
2022/11/08 00:36:55;;;;;;;3.30;1.63;;;;;;;;;;5090429;28;20047;-85
2022/11/08 00:39:21;;;;;;;2.35;1.08;;;;;;;;;;5070284;28;20024;-85
2022/11/08 00:41:47;;;;;;;1.80;1.20;;;;;;;;;;5061746;28;20005;-85
2022/11/08 00:44:13;;;;;;;3.35;1.45;;;;;;;;;;5088266;28;20387;-84
2022/11/08 00:46:40;;;;;;;1.70;0.90;;;;;;;;;;5075108;28;20031;-84
2022/11/08 00:49:06;;;;;;;2.30;0.90;;;;;;;;;;5070046;28;20055;-85
2022/11/08 00:51:32;;;;;;;1.70;0.90;;;;;;;;;;5080768;28;20157;-85
2022/11/08 00:53:59;;;;;;;3.80;1.60;;;;;;;;;;5084518;28;20043;-85
2022/11/08 00:56:24;;;;;;;2.65;1.48;;;;;;;;;;5089256;28;20535;-85
2022/11/08 00:58:50;;;;;;;2.83;1.92;;;;;;;;;;5066474;28;20024;-85
2022/11/08 01:01:18;;;;;;;1.58;0.90;;;;;;;;;;5073296;28;20493;-85
2022/11/08 01:03:44;;;;;;;2.63;1.40;;;;;;;;;;5071454;28;20032;-85
2022/11/08 01:06:11;;;;;;;4.10;1.77;;;;;;;;;;5069127;28;20154;-85
2022/11/08 01:08:37;;;;;;;3.95;1.60;;;;;;;;;;5069727;28;20024;-85
2022/11/08 01:11:05;;;;;;;6.45;1.20;;;;;;;;;;5066568;28;20032;-84
2022/11/08 01:13:31;;;;;;;4.10;1.88;;;;;;;;;;5073870;28;20943;-84
2022/11/08 01:15:58;;;;;;;3.20;1.58;;;;;;;;;;5088744;28;20643;-85
2022/11/08 01:18:24;;;;;;;4.10;1.35;;;;;;;;;;5085058;28;20107;-85
2022/11/08 01:20:50;;;;;;;5.20;2.55;;;;;;;;;;5086360;28;20059;-85
2022/11/08 01:23:17;;;;;;;2.67;1.35;;;5.50;99.90;;;;;;5071190;28;20036;-85
2022/11/08 01:25:45;;;;;;;3.88;1.73;;;6.00;99.90;;;;;;5067223;28;20108;-84
2022/11/08 01:28:12;;;;;;;6.72;1.27;;;;;;;;;;5085765;28;20059;-84
2022/11/08 01:30:39;;;;;;;2.53;1.60;;;4.80;99.90;;;;;;5066807;28;20094;-85
2022/11/08 01:33:05;;;;;;;2.33;1.17;;;;;;;;;;5084318;28;20028;-85
2022/11/08 01:35:32;;;;;;;1.92;1.33;;;;;;;;;;5065254;28;20025;-85
2022/11/08 01:37:58;;;;;;;3.78;1.52;;;;;;;;;;5067654;28;20028;-85
2022/11/08 01:40:25;;;;;;;3.58;1.42;;;;;;;;;;5066338;28;20028;-85
2022/11/08 01:42:51;;;;;;;2.95;1.65;;;;;;;;;;5063589;28;20156;-85
2022/11/08 01:45:55;;;;;;;2.00;1.13;;;4.90;99.90;;;;;;5069868;28;20024;-85
2022/11/08 01:48:21;;;;;;;7.43;1.48;;;;;;;;;;5068037;28;20557;-85
2022/11/08 01:50:47;;;;;;;3.40;1.25;;;;;;;;;;5080837;28;20039;-85
2022/11/08 01:53:13;;;;;;;2.78;1.35;;;;;;;;;;5065981;28;20243;-85
2022/11/08 01:55:39;;;;;;;2.55;1.58;;;;;;;;;;5086219;28;20115;-85
2022/11/08 01:58:13;;;;;;;2.78;1.38;;;5.70;99.90;;;;;;5070168;28;20043;-85
2022/11/08 02:00:40;;;;;;;1.73;1.27;;;;;;;;;;5060485;28;20028;-84
2022/11/08 02:03:09;;;;;;;2.95;1.30;;;5.80;99.90;;;;;;5071919;28;20478;-85
2022/11/08 02:05:35;;;;;;;3.13;1.77;;;;;;;;;;5078441;28;20035;-85
2022/11/08 02:08:26;;;;;;;4.82;1.90;;;4.90;99.90;;;;;;5072907;28;20096;-85
2022/11/08 02:10:52;;;;;;;4.28;1.90;;;5.70;99.90;;;;;;5083196;28;20516;-84
2022/11/08 02:13:20;;;;;;;2.70;1.02;;;;;;;;;;5079983;28;20024;-85
2022/11/08 02:15:46;;;;;;;2.15;1.35;;;;;;;;;;5091670;28;20024;-85
2022/11/08 02:18:13;;;;;;;4.63;1.35;;;5.60;99.90;;;;;;5070261;28;20035;-84
2022/11/08 02:20:49;;;;;;;4.25;1.85;;;4.60;99.90;;;;;;5083959;28;20020;-84
2022/11/08 02:23:39;;;;;;;3.03;1.63;;;4.60;99.90;;;;;;5070071;28;20036;-84
2022/11/08 02:26:05;;;;;;;2.60;1.42;;;;;;;;;;5070335;28;20077;-85
2022/11/08 02:28:38;;;;;;;2.78;1.40;;;5.50;99.90;;;;;;5071161;28;20067;-84
2022/11/08 02:31:04;;;;;;;3.70;1.58;;;;;;;;;;5069634;28;20431;-85
2022/11/08 02:33:31;;;;;;;7.72;2.38;;;;;;;;;;5065668;28;20028;-85
2022/11/08 02:35:58;;;;;;;2.83;1.67;;;;;;;;;;5060590;28;20424;-85
2022/11/08 02:38:26;;;;;;;3.95;1.75;;;;;;;;;;5063681;28;20039;-85
2022/11/08 02:40:54;;;;;;;5.90;1.42;;;4.80;99.90;;;;;;5060586;28;20073;-85
2022/11/08 02:43:21;;;;;;;4.65;2.38;;;4.80;99.90;;;;;;5080969;28;20525;-85
2022/11/08 02:45:47;;;;;;;2.25;1.70;;;;;;;;;;5083117;28;20534;-85
2022/11/08 02:48:13;;;;;;;2.30;1.42;;;;;;;;;;5065005;28;20031;-85
2022/11/08 02:50:39;;;;;;;2.63;1.52;;;;;;;;;;5070061;28;20036;-85
2022/11/08 02:53:06;;;;;;;4.68;1.58;;;;;;;;;;5078961;28;20016;-84
2022/11/08 02:55:32;;;;;;;3.85;1.55;;;;;;;;;;5067355;28;20069;-85
2022/11/08 02:57:58;;;;;;;2.65;1.45;;;;;;;;;;5068466;28;20020;-85
2022/11/08 03:00:24;;;;;;;3.15;1.35;;;;;;;;;;5069541;28;20386;-85
2022/11/08 03:02:55;;;;;;;3.65;1.27;;;4.50;99.90;;;;;;5065839;28;20032;-85
2022/11/08 03:05:21;;;;;;;2.58;1.65;;;;;;;;;;5083736;28;20039;-85
2022/11/08 03:07:47;;;;;;;5.25;1.70;;;;;;;;;;5082322;28;20605;-85
2022/11/08 03:10:14;;;;;;;3.17;1.55;;;4.40;99.90;;;;;;5075416;28;20054;-85
2022/11/08 03:12:40;;;;;;;3.53;1.70;;;;;;;;;;5067093;28;20021;-84
2022/11/08 03:15:08;;;;;;;2.47;1.40;;;5.40;99.90;;;;;;5068391;28;20016;-84
2022/11/08 03:17:34;;;;;;;4.72;1.50;;;;;;;;;;5085255;28;20017;-84
2022/11/08 03:20:00;;;;;;;6.22;1.50;;;;;;;;;;5067253;28;20056;-84
2022/11/08 03:22:26;;;;;;;3.72;1.90;;;;;;;;;;5069823;28;20028;-84
2022/11/08 03:24:52;;;;;;;5.90;1.92;;;;;;;;;;5079924;28;20051;-84
2022/11/08 03:27:18;;;;;;;3.30;1.77;;;;;;;;;;5068684;28;20036;-84
2022/11/08 03:29:45;;;;;;;3.00;1.70;;;;;;;;;;5082185;28;20029;-84
2022/11/08 03:32:11;;;;;;;4.15;1.80;;;;;;;;;;5089075;28;20397;-84
2022/11/08 03:34:37;;;;;;;2.75;1.48;;;;;;;;;;5083307;28;20524;-84
2022/11/08 03:37:08;;;;;;;3.33;1.92;;;4.30;99.90;;;;;;5068303;28;20271;-84
2022/11/08 03:39:34;;;;;;;2.75;1.77;;;;;;;;;;5063839;28;20025;-85
2022/11/08 03:42:02;;;;;;;3.60;1.65;;;;;;;;;;5068151;28;20122;-84
2022/11/08 03:44:31;;;;;;;6.60;2.80;;;;;;;;;;5076966;28;20055;-85
2022/11/08 03:46:58;;;;;;;2.92;2.22;;;4.50;99.90;;;;;;5070978;28;20020;-85
2022/11/08 03:49:24;;;;;;;5.88;1.60;;;;;;;;;;5081326;28;20036;-85
2022/11/08 03:51:50;;;;;;;3.30;2.10;;;;;;;;;;5068144;28;20043;-85
2022/11/08 03:54:16;;;;;;;5.03;2.15;;;;;;;;;;5085601;28;20024;-85
2022/11/08 03:56:42;;;;;;;4.40;2.10;;;;;;;;;;5067004;28;20364;-85
2022/11/08 03:59:08;;;;;;;3.25;1.75;;;;;;;;;;5085736;28;20077;-85
2022/11/08 04:01:34;;;;;;;7.10;1.75;;;;;;;;;;5064723;28;20036;-84
2022/11/08 04:04:00;;;;;;;3.13;1.45;;;;;;;;;;5066131;28;20032;-84
2022/11/08 04:06:25;;;;;;;2.80;2.03;;;;;;;;;;5072065;28;20391;-85
2022/11/08 04:08:51;;;;;;;3.83;2.40;;;;;;;;;;5072688;28;20028;-85
2022/11/08 04:16:47;;;;;;;3.05;1.63;;;;;;;;;;5085632;28;20073;-84
2022/11/08 04:21:58;;;;;;;4.53;2.33;;;;;;;;;;5085365;28;20105;-85
2022/11/08 04:24:24;;;;;;;5.50;2.25;;;;;;;;;;5084163;28;20032;-85
2022/11/08 04:26:50;;;;;;;4.97;2.72;;;;;;;;;;5072831;28;20075;-85
2022/11/08 04:29:16;;;;;;;3.85;2.60;;;;;;;;;;5072518;28;20032;-83
2022/11/08 04:31:42;;;;;;;5.68;2.85;;;;;;;;;;5082728;28;20028;-84
2022/11/08 04:34:08;;;;;;;5.50;2.42;;;;;;;;;;5085895;28;20078;-84
2022/11/08 04:36:34;;;;;;;8.43;2.13;;;;;;;;;;5069855;28;20178;-84
2022/11/08 04:39:00;;;;;;;3.42;2.38;;;;;;;;;;5087065;28;20024;-84
2022/11/08 04:41:26;;;;;;;3.05;2.00;;;4.30;99.90;;;;;;5082359;28;20430;-84
2022/11/08 04:43:54;;;;;;;5.38;3.28;;;;;;;;;;5069235;28;20108;-84
2022/11/08 04:46:22;;;;;;;3.25;2.00;;;4.50;99.90;;;;;;5065167;28;20050;-86
2022/11/08 04:48:50;;;;;;;3.75;2.17;;;;;;;;;;5085728;28;20040;-85
2022/11/08 04:51:18;;;;;;;2.75;1.92;;;;;;;;;;5070579;28;20055;-85
2022/11/08 04:53:44;;;;;;;2.75;1.85;;;;;;;;;;5084419;28;20329;-85
2022/11/08 04:56:11;;;;;;;4.10;2.03;;;;;;;;;;5071981;28;20119;-84
2022/11/08 04:58:41;;;;;;;4.35;2.63;;;4.40;99.90;;;;;;5068908;28;20031;-84
2022/11/08 05:01:09;;;;;;;5.68;2.35;;;5.10;99.90;;;;;;5075385;28;20036;-84
2022/11/08 05:03:35;;;;;;;3.47;2.20;;;;;;;;;;5058597;28;20020;-85
2022/11/08 05:06:04;;;;;;;2.58;1.70;;;;;;;;;;5065024;28;20035;-85
2022/11/08 05:08:30;;;;;;;4.30;2.25;;;;;;;;;;5081395;28;20040;-84
2022/11/08 05:11:00;;;;;;;4.15;2.17;;;;;;;;;;5056395;28;20028;-85
2022/11/08 05:13:26;;;;;;;5.50;2.65;;;;;;;;;;5064809;28;20032;-84
2022/11/08 05:15:52;;;;;;;4.90;2.85;;;;;;;;;;5076080;28;20030;-84
2022/11/08 05:18:18;;;;;;;3.83;2.30;;;;;;;;;;5067692;28;20032;-85
2022/11/08 05:23:29;;;;;;;3.38;1.90;;;;;;;;;;5080197;28;20043;-82
2022/11/08 05:25:56;;;;;;;3.58;2.42;;;4.60;99.90;;;;;;5083875;28;20036;-82
2022/11/08 05:28:22;;;;;;;4.38;1.90;;;;;;;;;;5059619;28;20060;-84
2022/11/08 05:30:52;;;;;;;7.38;2.05;;;;;;;;;;5064164;28;20121;-85
2022/11/08 05:33:18;;;;;;;3.78;1.95;;;;;;;;;;5061535;28;20021;-86
2022/11/08 05:35:44;;;;;;;3.15;1.67;;;;;;;;;;5084353;28;20043;-85
2022/11/08 05:38:10;;;;;;;4.20;2.22;;;;;;;;;;5075755;28;20467;-85
2022/11/08 05:40:36;;;;;;;3.75;2.40;;;;;;;;;;5085059;28;20367;-84
2022/11/08 05:43:02;;;;;;;3.88;1.85;;;;;;;;;;5074870;28;20336;-86
2022/11/08 05:45:28;;;;;;;2.80;2.00;;;;;;;;;;5055614;28;20202;-85
2022/11/08 05:47:56;;;;;;;4.07;3.20;;;;;;;;;;5064653;28;20025;-86
2022/11/08 05:50:22;;;;;;;4.80;2.55;;;;;;;;;;5079773;28;20550;-86
2022/11/08 05:52:48;;;;;;;4.78;2.38;;;;;;;;;;5060074;28;20035;-85
2022/11/08 05:55:14;;;;;;;8.20;3.97;;;;;;;;;;5076050;28;20496;-85
2022/11/08 05:57:43;;;;;;;9.50;4.75;;;;;;;;;;5082739;28;20035;-84
2022/11/08 06:00:10;;;;;;;6.47;3.25;;;;;;;;;;5080875;28;20028;-85
2022/11/08 06:02:36;;;;;;;6.80;2.90;;;;;;;;;;5058657;28;20085;-85
2022/11/08 06:05:04;;;;;;;3.88;2.30;;;;;;;;;;5061894;28;20024;-85
2022/11/08 06:07:30;;;;;;;5.20;2.80;;;;;;;;;;5074390;28;20384;-88
2022/11/08 06:09:56;;;;;;;3.95;2.33;;;;;;;;;;5073578;28;20513;-87
2022/11/08 06:12:22;;;;;;;3.60;2.67;;;;;;;;;;5078313;28;20032;-88
2022/11/08 06:14:48;;;;;;;4.38;2.22;;;;;;;;;;5074503;28;20032;-87
2022/11/08 06:17:14;;;;;;;3.85;2.63;;;;;;;;;;5087183;28;20038;-88
2022/11/08 06:19:41;;;;;;;3.95;2.67;;;;;;;;;;5091277;28;20469;-86
2022/11/08 06:22:07;;;;;;;7.07;2.45;;;;;;;;;;5082375;28;20016;-88
2022/11/08 06:24:33;;;;;;;3.03;2.38;;;;;;;;;;5083887;28;20035;-87
2022/11/08 06:26:59;;;;;;;4.13;2.20;;;;;;;;;;5084199;28;20024;-88
2022/11/08 06:29:28;;;;;;;6.97;3.85;;;;;;;;;;5083114;28;20061;-88
2022/11/08 06:31:54;;;;;;;6.03;3.78;;;;;;;;;;5083308;28;20020;-88
2022/11/08 06:34:25;;;;;;;5.97;3.53;;;;;;;;;;5083369;28;20043;-89
2022/11/08 06:36:53;;;;;;;6.80;3.63;;;;;;;;;;5084355;28;20016;-89
2022/11/08 06:39:24;;;;;;;6.35;3.80;;;;;;;;;;5082726;28;20028;-87
2022/11/08 06:42:27;;;;;;;7.90;4.55;;;;;;;;;;5083500;28;20024;-87
2022/11/08 06:44:55;;;;;;;6.45;3.10;;;;;;;;;;5084223;28;20024;-89
2022/11/08 06:47:21;;;;;;;5.70;2.20;;;;;;;;;;5083174;28;20422;-89
2022/11/08 06:49:47;;;;;;;2.58;1.83;;;;;;;;;;5083395;28;20542;-87
2022/11/08 06:52:13;;;;;;;4.65;2.10;;;;;;;;;;5084200;28;20092;-88
2022/11/08 06:54:57;;;;;;;4.65;3.03;;;;;;;;;;5082265;28;20051;-89
2022/11/08 06:57:40;;;;;;;3.58;1.98;;;;;;;;;;5072049;28;20367;-90
2022/11/08 07:00:07;;;;;;;6.07;2.72;;;;;;;;;;5086646;28;20020;-90
2022/11/08 07:02:33;;;;;;;5.82;3.05;;;;;;;;;;5079816;28;20032;-88
2022/11/08 07:05:01;;;;;;;8.45;4.45;;;;;;;;;;5076655;28;20055;-89
2022/11/08 07:07:27;;;;;;;6.75;4.13;;;;;;;;;;5068057;28;20016;-88
2022/11/08 07:09:54;;;;;;;9.20;4.70;;;;;;;;;;5049943;28;20044;-87
2022/11/08 07:15:27;;;;;;;;;;;;;;;;;;;;;
2022/11/08 07:20:59;;;;;;;8.13;3.88;;;4.50;99.90;;;;;;5062780;23;20043;-86
2022/11/08 07:23:25;;;;;;;4.00;2.97;;;;;;;;;;5065730;28;20043;-85
2022/11/08 07:25:51;;;;;;;7.40;3.70;;;;;;;;;;5064608;28;20024;-90
2022/11/08 07:28:18;;;;;;;5.57;2.90;;;;;;;;;;5051227;28;20543;-85
2022/11/08 07:30:44;;;;;;;8.88;3.92;;;;;;;;;;5066837;28;20032;-86
2022/11/08 07:33:11;;;;;;;6.10;4.35;;;;;;;;;;5070319;28;20085;-83
2022/11/08 07:35:37;;;;;;;6.05;3.65;;;;;;;;;;5049849;28;20032;-86
2022/11/08 07:38:03;;;;;;;8.95;4.75;;;;;;;;;;5071715;28;20021;-84
2022/11/08 07:40:29;;;;;;;9.85;5.22;;;4.90;99.90;;;;;;5071150;28;20293;-82
2022/11/08 07:42:58;;;;;;;11.55;5.43;;;;;;;;;;5071477;28;20077;-86
2022/11/08 07:45:24;;;;;;;21.90;10.88;;;4.50;99.90;;;;;;5070689;28;20024;-87
2022/11/08 07:47:58;;;;;;;27.77;13.27;;;4.50;99.90;;;;;;5066866;28;20037;-88
2022/11/08 07:50:24;;;;;;;17.17;8.20;;;;;;;;;;5066240;28;20036;-85
2022/11/08 07:52:50;;;;;;;14.85;7.70;;;;;;;;;;5065328;28;20067;-86
2022/11/08 07:55:16;;;;;;;10.10;5.13;;;;;;;;;;5064770;28;20028;-85
2022/11/08 07:57:42;;;;;;;9.95;5.57;;;;;;;;;;5064313;28;20021;-85
2022/11/08 08:00:09;;;;;;;10.02;5.18;;;;;;;;;;5065090;28;20037;-87
2022/11/08 08:02:35;;;;;;;8.65;3.83;;;;;;;;;;5068475;28;20025;-82
2022/11/08 08:05:01;;;;;;;6.05;3.35;;;;;;;;;;5066890;28;20101;-87
2022/11/08 08:07:27;;;;;;;5.13;3.45;;;;;;;;;;5070740;28;20032;-84
2022/11/08 08:09:53;;;;;;;5.38;3.60;;;;;;;;;;5061728;28;20033;-89
2022/11/08 08:12:19;;;;;;;8.43;3.40;;;;;;;;;;5071530;28;20017;-88
2022/11/08 08:14:45;;;;;;;6.63;2.83;;;;;;;;;;5072603;28;20545;-86
2022/11/08 08:17:11;;;;;;;11.32;4.93;;;;;;;;;;5069603;28;20024;-84
2022/11/08 08:19:37;;;;;;;6.68;4.57;;;;;;;;;;5070774;28;20032;-85
2022/11/08 08:22:02;;;;;;;10.57;6.20;;;;;;;;;;5073938;28;20023;-85
2022/11/08 08:24:28;;;;;;;13.93;6.70;;;;;;;;;;5062625;28;20037;-85
2022/11/08 08:26:54;;;;;;;19.60;7.35;;;;;;;;;;5070425;28;20020;-85
2022/11/08 08:29:20;;;;;;;10.60;5.53;;;;;;;;;;5074193;28;20047;-86
2022/11/08 08:31:46;;;;;;;10.65;5.63;;;;;;;;;;5070958;28;20032;-87
2022/11/08 08:34:14;;;;;;;10.50;5.15;;;;;;;;;;5070946;28;20722;-86
2022/11/08 08:36:40;;;;;;;9.02;4.80;;;;;;;;;;5074275;28;20078;-90
2022/11/08 08:39:06;;;;;;;6.70;3.38;;;;;;;;;;5070268;28;20028;-88
2022/11/08 08:41:32;;;;;;;6.40;3.85;;;;;;;;;;5074343;28;20029;-88
2022/11/08 08:43:58;;;;;;;6.63;3.60;;;;;;;;;;5078529;28;20036;-86
2022/11/08 08:46:24;;;;;;;4.15;2.40;;;;;;;;;;5074402;28;20017;-91
2022/11/08 08:48:50;;;;;;;6.40;3.42;;;;;;;;;;5075081;28;20036;-89
2022/11/08 08:51:16;;;;;;;9.15;2.90;;;;;;;;;;5059650;28;20577;-90
2022/11/08 08:53:42;;;;;;;6.63;2.85;;;;;;;;;;5072549;28;20059;-86
2022/11/08 08:56:08;;;;;;;4.18;2.15;;;;;;;;;;5075019;28;20028;-86
2022/11/08 08:58:34;;;;;;;5.90;3.40;;;;;;;;;;5074183;28;20032;-85
2022/11/08 09:01:01;;;;;;;5.43;1.92;;;;;;;;;;5074397;28;20115;-86
2022/11/08 09:03:27;;;;;;;6.05;2.78;;;;;;;;;;5078747;28;20028;-91
2022/11/08 09:05:53;;;;;;;3.80;2.47;;;;;;;;;;5074817;28;20020;-89
2022/11/08 09:08:19;;;;;;;5.80;2.17;;;;;;;;;;5076199;28;20088;-83
2022/11/08 09:10:45;;;;;;;6.95;2.78;;;;;;;;;;5075731;28;20028;-87
2022/11/08 09:13:11;;;;;;;6.47;2.42;;;;;;;;;;5081754;28;20529;-89
2022/11/08 09:15:38;;;;;;;4.30;1.90;;;;;;;;;;5078972;28;20060;-90
2022/11/08 09:18:04;;;;;;;5.50;2.40;;;;;;;;;;5076642;28;20051;-87
2022/11/08 09:20:30;;;;;;;4.38;2.47;;;;;;;;;;5076641;28;20040;-88
2022/11/08 09:23:00;;;;;;;4.60;2.50;;;;;;;;;;5085646;28;20071;-90
2022/11/08 09:25:26;;;;;;;6.35;2.75;;;;;;;;;;5087701;28;20052;-93
2022/11/08 09:27:53;;;;;;;7.18;2.88;;;10.50;99.90;;;;;;5082027;28;20036;-86
2022/11/08 09:30:19;;;;;;;7.25;2.78;;;;;;;;;;5078594;28;20032;-91
2022/11/08 09:32:45;;;;;;;8.02;3.50;;;;;;;;;;5078137;28;20035;-88
2022/11/08 09:35:11;;;;;;;5.47;2.65;;;;;;;;;;5073029;28;20119;-91
2022/11/08 09:37:37;;;;;;;6.40;2.47;;;;;;;;;;5075278;28;20023;-86
2022/11/08 09:40:03;;;;;;;3.88;1.90;;;;;;;;;;5074465;28;20055;-85
2022/11/08 09:42:41;;;;;;;4.95;2.42;;;;;;;;;;5069880;28;20056;-86
2022/11/08 09:45:12;;;;;;;4.47;2.03;;;;;;;;;;5072239;28;20171;-85
2022/11/08 09:47:44;;;;;;;4.82;1.95;;;11.30;99.90;;;;;;5072778;28;20029;-89
2022/11/08 09:50:35;;;;;;;4.03;1.98;;;10.70;99.90;;;;;;5069651;28;20732;-85
2022/11/08 09:53:26;;;;;;;3.50;1.70;;;;;;;;;;5068957;28;20089;-91
2022/11/08 09:55:55;;;;;;;3.38;1.48;;;;;;;;;;5056756;28;21170;-86
2022/11/08 09:58:38;;;;;;;2.55;1.67;;;11.90;99.90;;;;;;5068647;28;20039;-87
2022/11/08 10:01:03;;;;;;;3.25;1.13;;;11.90;99.90;;;;;;5073452;28;20059;-88
2022/11/08 10:03:30;;;;;;;2.13;1.10;;;;;;;;;;5071358;28;20028;-84
2022/11/08 10:06:05;;;;;;;3.95;1.50;;;12.60;99.90;;;;;;5074204;28;20027;-85
2022/11/08 10:09:13;;;;;;;2.05;1.20;;;11.60;99.90;;;;;;5067171;28;20047;-87
2022/11/08 10:11:57;;;;;;;2.42;1.13;;;12.80;99.90;;;;;;5060896;28;20036;-85
2022/11/08 10:14:36;;;;;;;2.25;0.80;;;;;;;;;;5072506;28;20037;-88
2022/11/08 10:17:27;;;;;;;2.28;0.80;;;12.20;99.90;;;;;;5067971;28;20118;-89
2022/11/08 10:20:21;;;;;;;1.88;0.80;;;12.80;99.90;;;;;;5066996;28;20020;-89
2022/11/08 10:23:02;;;;;;;2.90;1.02;;;;;;;;;;5020946;28;20037;-86
2022/11/08 10:25:55;;;;;;;1.67;0.80;;;12.40;99.90;;;;;;5065233;28;20163;-87
2022/11/08 10:28:27;;;;;;;1.20;0.52;;;13.30;99.90;;;;;;5066264;28;20028;-87
2022/11/08 10:30:54;;;;;;;1.45;0.60;;;13.40;99.90;;;;;;5066904;28;20029;-87
2022/11/08 10:33:27;;;;;;;2.40;1.30;;;13.50;99.90;;;;;;5065626;28;20036;-89
2022/11/08 10:36:01;;;;;;;0.90;0.60;;;13.60;99.90;;;;;;5071278;28;20028;-87
2022/11/08 10:38:30;;;;;;;;;;;13.50;99.90;;;;;;5071590;28;20029;-87
2022/11/08 10:41:39;;;;;;;2.53;0.68;;;13.80;99.90;;;;;;5067246;28;20025;-87
2022/11/08 10:44:14;;;;;;;1.55;0.52;;;13.70;99.90;;;;;;5004018;28;20239;-87
2022/11/08 10:46:43;;;;;;;0.88;0.50;;;13.70;99.90;;;;;;5062352;28;20029;-87
2022/11/08 10:49:15;;;;;;;4.35;0.70;;;;;;;;;;5066314;28;20035;-87
2022/11/08 10:51:43;;;;;;;1.67;0.85;;;14.20;99.90;;;;;;5067293;28;20023;-87
2022/11/08 10:54:38;;;;;;;2.00;0.60;;;13.90;99.90;;;;;;5062581;28;20040;-87
2022/11/08 10:57:04;;;;;;;2.97;0.70;;;;;;;;;;5074634;28;20031;-88
2022/11/08 10:59:31;;;;;;;1.13;0.75;;;14.10;99.90;;;;;;5084731;28;20032;-87
2022/11/08 11:01:57;;;;;;;2.75;0.60;;;;;;;;;;5085664;28;20048;-86
2022/11/08 11:04:31;;;;;;;0.60;0.28;;;14.30;99.90;;;;;;5083713;28;20029;-86
2022/11/08 11:07:23;;;;;;;3.53;1.33;;;14.30;99.90;;;;;;5075951;28;20095;-84
2022/11/08 11:09:49;;;;;;;1.23;0.40;;;;;;;;;;5066613;28;20031;-83
2022/11/08 11:12:15;;;;;;;1.13;0.22;;;;;;;;;;5061553;28;20052;-86
2022/11/08 11:14:41;;;;;;;3.63;0.40;;;;;;;;;;5063300;28;20067;-85
2022/11/08 11:17:17;;;;;;;0.45;0.20;;;14.60;99.90;;;;;;5059165;28;20024;-85
2022/11/08 11:19:52;;;;;;;1.02;0.30;;;14.30;99.90;;;;;;5066202;28;20118;-85
2022/11/08 11:22:27;;;;;;;1.23;0.30;;;14.70;99.90;;;;;;5062391;28;20036;-85
2022/11/08 11:24:53;;;;;;;2.08;0.55;;;;;;;;;;5056634;28;20028;-86
2022/11/08 11:27:32;;;;;;;6.10;0.40;;;14.50;99.90;;;;;;5064556;28;20028;-85
2022/11/08 11:30:20;;;;;;;0.40;0.28;;;14.90;99.90;;;;;;5063175;28;20478;-86
2022/11/08 11:32:58;;;;;;;0.38;0.20;;;15.00;99.90;;;;;;5062895;28;20035;-85
2022/11/08 11:35:29;;;;;;;0.57;0.30;;;15.30;99.90;;;;;;5062066;28;20123;-85
2022/11/08 11:37:57;;;;;;;1.13;0.40;;;14.60;99.90;;;;;;5062971;28;20025;-86
2022/11/08 11:40:36;;;;;;;1.05;0.32;;;15.90;99.90;;;;;;5064422;28;20059;-86
2022/11/08 11:43:17;;;;;;;3.15;0.50;;;15.90;99.90;;;;;;5060338;28;20070;-86
2022/11/08 11:46:10;;;;;;;1.52;0.75;;;16.20;99.90;;;;;;5064671;28;20025;-87
2022/11/08 11:48:42;;;;;;;0.50;0.20;;;15.10;99.90;;;;;;5063623;28;20493;-85
2022/11/08 11:51:09;;;;;;;0.43;0.28;;;15.00;99.90;;;;;;5053037;28;20040;-84
2022/11/08 11:53:36;;;;;;;1.80;0.22;;;;;;;;;;5060606;28;20393;-86
2022/11/08 11:56:24;;;;;;;0.90;0.43;;;16.10;99.90;;;;;;5059815;28;20028;-84
2022/11/08 11:59:22;;;;;;;0.77;0.20;;;16.10;99.90;;;;;;5068494;28;20296;-86
2022/11/08 12:02:21;;;;;;;1.35;0.50;;;15.30;99.90;;;;;;5058298;28;20025;-83
2022/11/08 12:05:09;;;;;;;1.17;0.45;;;16.20;99.90;;;;;;5060672;28;20146;-82
2022/11/08 12:07:45;;;;;;;0.35;0.20;;;16.20;99.90;;;;;;5065139;28;20116;-83
2022/11/08 12:10:22;;;;;;;2.22;0.40;;;16.30;99.90;;;;;;5062576;28;20417;-83
2022/11/08 12:12:57;;;;;;;0.38;0.30;;;;;;;;;;5056738;28;20025;-87
2022/11/08 12:15:31;;;;;;;0.22;0.22;;;16.10;99.90;;;;;;5064588;28;20052;-87
2022/11/08 12:17:57;;;;;;;0.80;0.28;;;;;;;;;;5048389;28;20028;-87
2022/11/08 12:20:26;;;;;;;0.98;0.40;;;;;;;;;;5069632;28;20033;-83
2022/11/08 12:23:48;;;;;;;0.65;0.30;;;16.00;99.90;;;;;;5066544;28;20024;-86
2022/11/08 12:26:40;;;;;;;0.73;0.20;;;16.20;99.90;;;;;;4986235;28;20046;-86
2022/11/08 12:29:29;;;;;;;2.00;0.20;;;15.00;99.90;;;;;;5072720;28;20040;-85
2022/11/08 12:32:22;;;;;;;0.77;0.20;;;;;;;;;;5064039;28;20036;-85
2022/11/08 12:34:54;;;;;;;0.55;0.30;;;;;;;;;;5068180;28;20037;-84
2022/11/08 12:37:28;;;;;;;1.30;0.30;;;16.20;99.90;;;;;;5067784;28;20515;-84
2022/11/08 12:40:00;;;;;;;0.35;0.20;;;16.20;99.90;;;;;;5066531;28;20052;-85
2022/11/08 12:42:26;;;;;;;2.00;0.40;;;;;;;;;;5068237;28;20108;-83
2022/11/08 12:45:19;;;;;;;1.25;0.65;;;16.00;99.90;;;;;;5070401;28;20067;-85
2022/11/08 12:47:51;;;;;;;0.25;0.22;;;;;;;;;;5069533;28;20052;-86
2022/11/08 12:50:37;;;;;;;1.77;0.60;;;15.00;99.90;;;;;;5067848;28;20032;-85
2022/11/08 12:53:30;;;;;;;1.75;0.73;;;16.00;99.90;;;;;;5065398;28;20391;-85
2022/11/08 12:55:57;;;;;;;2.05;1.05;;;14.90;99.90;;;;;;5066800;28;20016;-86
2022/11/08 12:58:25;;;;;;;5.63;1.40;;;;;;;;;;5061947;28;20039;-86
2022/11/08 13:00:55;;;;;;;3.15;1.27;;;15.50;99.90;;;;;;5066905;28;20021;-88
2022/11/08 13:04:05;;;;;;;2.17;1.23;;;14.80;99.90;;;;;;5049767;28;20036;-86
2022/11/08 13:06:49;;;;;;;1.50;0.25;;;15.30;99.90;;;;;;5070195;28;20027;-86
2022/11/08 13:09:26;;;;;;;1.05;0.40;;;14.90;99.90;;;;;;5068216;28;20039;-86
2022/11/08 13:12:03;;;;;;;1.55;0.30;;;;;;;;;;5064419;28;20021;-83
2022/11/08 13:14:29;;;;;;;1.52;0.30;;;;;;;;;;5055232;28;20036;-85
2022/11/08 13:17:24;;;;;;;0.57;0.40;;;14.50;99.90;;;;;;5058795;28;20024;-85
2022/11/08 13:19:57;;;;;;;0.10;0.10;;;14.60;99.90;;;;;;5057194;28;20063;-84
2022/11/08 13:22:28;;;;;;;0.98;0.32;;;14.60;99.90;;;;;;5063912;28;20485;-84
2022/11/08 13:25:16;;;;;;;0.80;0.30;;;14.00;99.90;;;;;;5066298;28;20119;-82
2022/11/08 13:27:47;;;;;;;0.60;0.30;;;14.00;99.90;;;;;;5042421;28;20029;-86
2022/11/08 13:30:16;;;;;;;1.95;0.57;;;;;;;;;;5063313;28;20028;-84
2022/11/08 13:33:30;;;;;;;1.02;0.47;;;14.60;99.90;;;;;;5066617;28;20021;-86
2022/11/08 13:36:03;;;;;;;0.50;0.40;;;;;;;;;;5055818;28;20041;-85
2022/11/08 13:38:57;;;;;;;1.38;0.30;;;14.10;99.90;;;;;;5069399;28;20033;-87
2022/11/08 13:41:23;;;;;;;;;;;14.10;99.90;;;;;;5067524;28;20028;-85
2022/11/08 13:43:52;;;;;;;1.45;0.30;;;14.30;99.90;;;;;;5069163;28;19916;-82
2022/11/08 13:46:21;;;;;;;0.73;0.40;;;14.30;99.90;;;;;;5063260;28;20028;-88
2022/11/08 13:49:03;;;;;;;0.28;0.20;;;14.20;99.90;;;;;;5064292;28;20092;-87
2022/11/08 13:51:31;;;;;;;0.38;0.20;;;14.20;99.90;;;;;;5056973;28;20037;-83
2022/11/08 13:54:21;;;;;;;0.38;0.22;;;14.70;99.90;;;;;;5061477;28;20037;-83
2022/11/08 13:57:13;;;;;;;0.98;0.28;;;14.40;99.90;;;;;;5061686;28;20052;-81
2022/11/08 13:59:41;;;;;;;1.00;0.30;;;14.40;99.90;;;;;;5063953;28;20024;-83
2022/11/08 14:02:22;;;;;;;2.22;0.50;;;14.50;99.90;;;;;;5066220;28;20029;-84
2022/11/08 14:04:47;;;;;;;0.90;0.38;;;14.30;99.90;;;;;;5068015;28;20063;-85
2022/11/08 14:07:49;;;;;;;1.90;0.50;;;15.20;99.90;;;;;;5058827;28;20075;-82
2022/11/08 14:10:29;;;;;;;1.02;0.30;;;;;;;;;;5043485;28;20678;-85
2022/11/08 14:13:14;;;;;;;2.17;0.50;;;14.80;99.90;;;;;;5061967;28;20051;-88
2022/11/08 14:15:45;;;;;;;1.98;0.63;;;;;;;;;;5052745;28;20048;-83
2022/11/08 14:18:23;;;;;;;0.35;0.17;;;14.20;99.90;;;;;;5060477;28;20044;-84
2022/11/08 14:20:49;;;;;;;0.80;0.30;;;;;;;;;;5062414;28;20056;-85
2022/11/08 14:23:17;;;;;;;1.50;0.35;;;13.50;99.90;;;;;;5068192;28;20044;-82
2022/11/08 14:26:06;;;;;;;1.20;0.43;;;14.00;99.90;;;;;;5065674;28;20024;-82
2022/11/08 14:28:34;;;;;;;1.42;0.57;;;14.10;99.90;;;;;;5057098;28;20041;-84
2022/11/08 14:31:03;;;;;;;0.82;0.32;;;14.60;99.90;;;;;;5070163;28;20281;-83
2022/11/08 14:33:31;;;;;;;3.05;0.43;;;13.80;99.90;;;;;;5068005;28;20046;-82
2022/11/08 14:36:06;;;;;;;1.23;0.40;;;13.90;99.90;;;;;;5065937;28;20017;-86
2022/11/08 14:38:43;;;;;;;0.77;0.30;;;13.80;99.90;;;;;;5065922;28;20082;-82
2022/11/08 14:41:15;;;;;;;2.72;0.90;;;13.90;99.90;;;;;;5066706;28;20024;-85
2022/11/08 14:43:45;;;;;;;1.10;0.45;;;13.20;99.90;;;;;;5067791;28;20531;-84
2022/11/08 14:46:12;;;;;;;0.30;0.30;;;;;;;;;;5071095;28;20062;-84
2022/11/08 14:48:48;;;;;;;1.38;0.70;;;13.60;99.90;;;;;;5068525;28;20044;-85